Terminal Aerodrome Forecast
Issued by NWS

Home | Current Version | Previous Version | Text Only | Print | Product List | Glossary On
Versions: 1 2 3 4 5 6 7 8 9 10 11 12 13 14 15 16 17 18 19 20 21
000
FTUS43 KSGF 171100
TAFJLN
TAF
KJLN 171120Z 1712/1812 VRB04KT P6SM OVC150
     FM171700 VRB04KT P6SM OVC060
     FM172200 10006KT 5SM -RASN BR SCT025 OVC040
     FM180400 12008KT 4SM -RASN BR BKN007 OVC015
     FM180800 11006KT 4SM -DZ OVC005=

USA.gov is the U.S. government's official web portal to all federal, state and local government web resources and services.